Time;durP1;ratioP1;P1;durP2;ratioP2;P2;SDS_P1;SDS_P2;PMS_P1;PMS_P2;Temp;Humidity;BMP_temperature;BMP_pressure;BME280_temperature;BME280_humidity;BME280_pressure;Samples;Min_cycle;Max_cycle;Signal;HPM_P1;HPM_P2
2022/12/06 00:25:38;;;;;;;13.40;9.13;;;6.50;99.90;;;;;;5117918;28;20515;-49
2022/12/06 00:28:04;;;;;;;21.05;12.98;;;6.40;99.90;;;;;;5086634;28;20093;-45
2022/12/06 00:30:30;;;;;;;17.27;10.20;;;6.40;99.90;;;;;;5091490;28;20127;-45
2022/12/06 00:32:56;;;;;;;13.05;6.07;;;6.30;99.90;;;;;;5091502;28;20554;-44
2022/12/06 00:35:22;;;;;;;16.83;9.85;;;6.10;99.90;;;;;;5091640;28;20409;-45
2022/12/06 00:38:08;;;;;;;17.42;10.93;;;6.10;99.90;;;;;;5022677;28;20045;-44
2022/12/06 00:40:34;;;;;;;16.85;8.02;;;6.10;99.90;;;;;;4985254;28;20056;-45
2022/12/06 00:42:59;;;;;;;16.92;9.82;;;6.00;99.90;;;;;;5050995;28;20049;-44
2022/12/06 00:45:25;;;;;;;17.65;10.32;;;6.00;99.90;;;;;;5051008;28;20021;-49
2022/12/06 00:47:51;;;;;;;21.55;10.32;;;6.00;99.90;;;;;;5050536;28;20046;-44
2022/12/06 00:50:17;;;;;;;12.75;7.80;;;5.90;99.90;;;;;;5050245;28;20032;-44
2022/12/06 00:52:42;;;;;;;21.67;12.50;;;5.90;99.90;;;;;;5050393;28;20067;-45
2022/12/06 00:58:29;;;;;;;17.63;10.60;;;5.80;99.90;;;;;;5049146;28;20087;-44
2022/12/06 01:01:05;;;;;;;17.83;8.73;;;5.70;99.90;;;;;;5050108;28;20056;-45
2022/12/06 01:03:30;;;;;;;21.20;11.80;;;5.70;99.90;;;;;;5050369;28;20374;-44
2022/12/06 01:05:56;;;;;;;21.30;10.50;;;5.80;99.90;;;;;;5053607;28;20070;-44
2022/12/06 01:08:22;;;;;;;16.08;9.15;;;5.70;99.90;;;;;;5062256;28;20028;-44
2022/12/06 01:10:53;;;;;;;15.25;9.80;;;5.70;99.90;;;;;;5094913;28;20077;-45
2022/12/06 01:13:19;;;;;;;16.35;8.32;;;5.70;99.90;;;;;;5096542;28;20038;-44
2022/12/06 01:15:45;;;;;;;21.83;11.63;;;5.70;99.90;;;;;;5096653;28;20028;-47
2022/12/06 01:18:10;;;;;;;22.90;14.20;;;5.70;99.90;;;;;;5096746;28;20392;-44
2022/12/06 01:20:36;;;;;;;19.17;11.38;;;5.70;99.90;;;;;;5060944;28;20115;-44
2022/12/06 01:23:02;;;;;;;25.63;14.60;;;5.70;99.90;;;;;;5096263;28;20020;-44
2022/12/06 01:25:29;;;;;;;18.85;12.45;;;5.70;99.90;;;;;;5077538;28;20047;-44
2022/12/06 01:27:55;;;;;;;24.75;15.13;;;5.70;99.90;;;;;;5111377;28;20036;-44
2022/12/06 01:30:21;;;;;;;24.92;13.57;;;5.80;99.90;;;;;;5096467;28;20081;-44
2022/12/06 01:32:47;;;;;;;23.20;14.55;;;5.80;99.90;;;;;;5096613;28;20027;-45
2022/12/06 01:35:13;;;;;;;26.15;14.80;;;5.90;99.90;;;;;;5094326;28;20441;-44
2022/12/06 01:37:38;;;;;;;22.95;14.13;;;5.90;99.90;;;;;;5077476;28;20081;-45
2022/12/06 01:40:05;;;;;;;19.30;12.10;;;5.80;99.90;;;;;;5095965;28;20479;-44
2022/12/06 01:42:30;;;;;;;22.05;11.98;;;5.70;99.90;;;;;;5094166;28;20058;-44
2022/12/06 01:44:58;;;;;;;25.48;13.57;;;5.70;99.90;;;;;;5096090;28;20472;-44
2022/12/06 01:47:33;;;;;;;25.13;14.80;;;5.70;99.90;;;;;;5095905;28;20093;-45
2022/12/06 01:50:11;;;;;;;27.65;15.13;;;5.90;99.90;;;;;;5096141;28;20027;-45
2022/12/06 01:53:01;;;;;;;24.42;14.50;;;6.00;99.90;;;;;;5096022;28;20371;-44
2022/12/06 01:55:33;;;;;;;25.67;15.52;;;6.10;99.90;;;;;;5095679;28;20478;-44
2022/12/06 01:58:05;;;;;;;28.27;15.38;;;6.20;99.90;;;;;;5095562;28;20067;-44
2022/12/06 02:00:31;;;;;;;24.67;15.63;;;6.20;99.90;;;;;;5095621;28;20070;-44
2022/12/06 02:03:00;;;;;;;27.85;16.38;;;6.30;99.90;;;;;;5094260;28;20068;-45
2022/12/06 02:05:26;;;;;;;26.23;16.17;;;6.30;99.90;;;;;;5072908;28;20028;-44
2022/12/06 02:07:53;;;;;;;24.23;15.07;;;;;;;;;;5073016;28;20040;-45
2022/12/06 02:10:19;;;;;;;24.92;14.68;;;6.50;99.90;;;;;;5056063;28;20068;-45
2022/12/06 02:12:50;;;;;;;24.85;15.07;;;6.40;99.90;;;;;;5072944;28;20039;-44
2022/12/06 02:15:16;;;;;;;21.03;13.70;;;6.50;99.90;;;;;;5055943;28;20482;-44
2022/12/06 02:17:44;;;;;;;25.90;15.27;;;6.50;99.90;;;;;;5072638;28;20131;-44
2022/12/06 02:20:32;;;;;;;24.30;14.00;;;6.40;99.90;;;;;;5056079;28;20496;-45
2022/12/06 02:23:28;;;;;;;25.65;13.35;;;6.40;99.90;;;;;;5072716;28;20028;-45
2022/12/06 02:26:05;;;;;;;22.20;14.82;;;6.20;99.90;;;;;;5072644;28;20550;-44
2022/12/06 02:28:52;;;;;;;28.40;14.27;;;6.20;99.90;;;;;;5073255;28;20076;-44
2022/12/06 02:31:29;;;;;;;23.02;14.90;;;6.30;99.90;;;;;;5055978;28;20048;-45
2022/12/06 02:34:19;;;;;;;26.70;15.82;;;6.20;99.90;;;;;;5055614;28;20052;-45
2022/12/06 02:37:08;;;;;;;20.73;14.25;;;6.10;99.90;;;;;;5086387;28;20036;-44
2022/12/06 02:39:41;;;;;;;22.98;14.95;;;6.10;99.90;;;;;;5095016;28;20040;-44
2022/12/06 02:42:19;;;;;;;24.85;15.10;;;6.20;99.90;;;;;;5092830;28;20036;-45
2022/12/06 02:44:50;;;;;;;24.10;14.18;;;6.00;99.90;;;;;;5094525;28;20020;-44
2022/12/06 02:47:19;;;;;;;21.73;14.10;;;6.00;99.90;;;;;;5095154;28;20081;-44
2022/12/06 02:49:49;;;;;;;28.15;15.77;;;5.90;99.90;;;;;;5094144;28;20048;-44
2022/12/06 02:52:19;;;;;;;23.40;15.32;;;6.00;99.90;;;;;;5094632;28;20084;-44
2022/12/06 02:54:47;;;;;;;25.70;14.63;;;6.20;99.90;;;;;;5094379;28;20064;-44
2022/12/06 02:57:13;;;;;;;25.75;15.55;;;6.20;99.90;;;;;;5094539;28;20031;-44
2022/12/06 02:59:49;;;;;;;24.45;15.60;;;6.30;99.90;;;;;;5094855;28;20032;-44
2022/12/06 03:02:14;;;;;;;22.40;14.38;;;6.40;99.90;;;;;;5094439;28;20486;-45
2022/12/06 03:05:20;;;;;;;23.75;14.52;;;6.40;99.90;;;;;;5094205;28;20052;-45
2022/12/06 03:07:48;;;;;;;29.08;18.38;;;6.50;99.90;;;;;;5094422;28;20073;-45
2022/12/06 03:10:22;;;;;;;26.15;15.93;;;6.80;99.90;;;;;;5094316;28;20570;-44
2022/12/06 03:13:04;;;;;;;34.92;28.52;;;7.00;99.90;;;;;;5094291;28;20054;-44
2022/12/06 03:15:50;;;;;;;23.67;14.77;;;7.30;99.90;;;;;;5094069;28;20028;-46
2022/12/06 03:18:35;;;;;;;21.88;15.15;;;7.10;99.90;;;;;;5094012;28;20051;-45
2022/12/06 03:21:09;;;;;;;21.33;14.05;;;7.10;99.90;;;;;;5092081;28;20036;-44
2022/12/06 03:23:39;;;;;;;21.73;14.88;;;6.90;99.90;;;;;;5094273;28;20031;-45
2022/12/06 03:26:08;;;;;;;25.83;15.43;;;7.00;99.90;;;;;;5094065;28;20081;-44
2022/12/06 03:28:36;;;;;;;23.08;16.17;;;7.00;99.90;;;;;;5102997;28;20051;-45
2022/12/06 03:31:08;;;;;;;22.33;15.85;;;7.20;99.90;;;;;;5114134;28;20030;-44
2022/12/06 03:33:41;;;;;;;26.77;14.82;;;7.30;99.90;;;;;;5114014;28;20033;-45
2022/12/06 03:36:09;;;;;;;23.55;15.43;;;7.40;99.90;;;;;;5114099;28;20036;-44
2022/12/06 03:38:44;;;;;;;23.08;15.73;;;7.50;99.90;;;;;;5113760;28;20028;-45
2022/12/06 03:41:13;;;;;;;26.90;15.35;;;7.70;99.90;;;;;;5079913;28;20032;-45
2022/12/06 03:43:39;;;;;;;27.55;16.77;;;7.90;99.90;;;;;;5114039;28;20031;-45
2022/12/06 03:46:11;;;;;;;34.22;17.25;;;7.90;99.90;;;;;;5061479;28;20031;-45
2022/12/06 03:48:42;;;;;;;27.20;15.48;;;8.00;99.90;;;;;;5112014;28;20034;-45
2022/12/06 03:51:12;;;;;;;21.67;15.77;;;8.00;99.90;;;;;;5114093;28;20067;-44
2022/12/06 03:53:50;;;;;;;27.60;17.60;;;8.00;99.90;;;;;;5113852;28;20110;-45
2022/12/06 03:56:16;;;;;;;30.85;18.67;;;8.00;99.90;;;;;;5113952;28;20084;-44
2022/12/06 03:58:42;;;;;;;28.42;17.08;;;7.80;99.90;;;;;;5115945;28;20035;-45
2022/12/06 04:01:08;;;;;;;28.15;17.30;;;7.90;99.90;;;;;;5117177;28;20038;-46
2022/12/06 04:03:34;;;;;;;23.50;14.68;;;8.00;99.90;;;;;;5116138;28;20042;-44
2022/12/06 04:06:04;;;;;;;22.63;14.55;;;8.00;99.90;;;;;;5113903;28;20035;-44
2022/12/06 04:08:31;;;;;;;21.67;15.00;;;8.00;99.90;;;;;;5113808;28;20024;-45
2022/12/06 04:10:57;;;;;;;23.52;14.23;;;7.80;99.90;;;;;;5111785;28;20028;-44
2022/12/06 04:13:23;;;;;;;22.30;14.02;;;7.80;99.90;;;;;;5113889;28;20039;-45
2022/12/06 04:15:53;;;;;;;23.25;14.35;;;7.80;99.90;;;;;;5113488;28;20073;-44
2022/12/06 04:18:19;;;;;;;20.35;14.50;;;7.80;99.90;;;;;;5114080;28;20051;-45
2022/12/06 04:23:36;;;;;;;24.88;14.75;;;7.60;99.90;;;;;;5113841;28;20092;-44
2022/12/06 04:26:03;;;;;;;24.45;14.27;;;7.50;99.90;;;;;;5113052;28;20476;-44
2022/12/06 04:39:28;;;;;;;33.47;20.52;;;7.60;99.90;;;;;;5114814;28;20043;-45
2022/12/06 04:44:38;;;;;;;41.95;25.10;;;7.50;99.90;;;;;;5101804;28;20043;-44
2022/12/06 04:47:04;;;;;;;31.48;19.88;;;7.70;99.90;;;;;;5117243;28;20036;-44
2022/12/06 04:49:30;;;;;;;24.85;16.23;;;7.80;99.90;;;;;;5117381;28;20485;-45
2022/12/06 04:51:56;;;;;;;26.70;16.80;;;7.80;99.90;;;;;;5117938;28;20027;-45
2022/12/06 04:54:22;;;;;;;24.77;15.98;;;7.90;99.90;;;;;;5115604;28;20118;-45
2022/12/06 04:56:48;;;;;;;26.88;16.58;;;7.80;99.90;;;;;;5117474;28;20027;-44
2022/12/06 04:59:14;;;;;;;26.15;15.48;;;7.90;99.90;;;;;;5117118;28;20028;-44
2022/12/06 05:01:40;;;;;;;25.00;16.77;;;;;;;;;;5117444;28;20031;-46
2022/12/06 05:04:06;;;;;;;25.95;16.25;;;8.10;99.90;;;;;;5117149;28;20035;-45
2022/12/06 05:06:32;;;;;;;25.85;15.73;;;8.00;99.90;;;;;;5098146;28;20036;-45
2022/12/06 05:08:58;;;;;;;25.20;16.83;;;7.80;99.90;;;;;;5117483;28;20020;-45
2022/12/06 05:11:23;;;;;;;26.65;17.35;;;7.90;99.90;;;;;;5114350;28;20050;-45
2022/12/06 05:13:49;;;;;;;26.63;18.05;;;8.00;99.90;;;;;;5097800;28;20027;-45
2022/12/06 05:16:15;;;;;;;25.05;16.23;;;8.10;99.90;;;;;;5114487;28;20031;-45
2022/12/06 05:18:41;;;;;;;22.05;15.52;;;8.20;99.90;;;;;;5115686;28;20041;-45
2022/12/06 05:21:18;;;;;;;25.10;15.45;;;8.00;99.90;;;;;;5095912;28;20046;-46
2022/12/06 05:23:44;;;;;;;26.65;15.93;;;8.00;99.90;;;;;;5115968;28;20019;-45
2022/12/06 05:26:12;;;;;;;27.20;15.18;;;;;;;;;;5116310;28;20466;-45
2022/12/06 05:28:38;;;;;;;23.73;16.15;;;7.80;99.90;;;;;;5115921;28;20074;-45
2022/12/06 05:31:04;;;;;;;25.20;16.45;;;7.60;99.90;;;;;;5115963;28;20081;-44
2022/12/06 05:33:30;;;;;;;26.67;16.80;;;7.70;99.90;;;;;;5115900;28;20020;-45
2022/12/06 05:35:56;;;;;;;27.83;16.90;;;7.50;99.90;;;;;;5115564;28;20103;-45
2022/12/06 05:38:22;;;;;;;28.73;18.45;;;7.30;99.90;;;;;;5115598;28;20040;-45
2022/12/06 05:40:48;;;;;;;43.63;28.42;;;7.30;99.90;;;;;;5094121;28;20181;-45
2022/12/06 05:43:15;;;;;;;33.38;20.92;;;7.20;99.90;;;;;;5115943;28;20020;-44
2022/12/06 05:45:41;;;;;;;26.65;16.17;;;7.20;99.90;;;;;;5096290;28;20038;-45
2022/12/06 05:48:07;;;;;;;24.60;14.05;;;7.10;99.90;;;;;;5115571;28;20023;-44
2022/12/06 05:50:34;;;;;;;27.55;18.33;;;6.90;99.90;;;;;;5114726;28;20027;-45
2022/12/06 05:53:00;;;;;;;28.00;17.38;;;6.90;99.90;;;;;;5115377;28;20031;-45
2022/12/06 05:55:26;;;;;;;26.08;17.77;;;7.00;99.90;;;;;;5112448;27;20027;-46
2022/12/06 05:57:53;;;;;;;25.65;15.40;;;7.10;99.90;;;;;;5115403;28;20433;-45
2022/12/06 06:00:19;;;;;;;29.67;17.10;;;7.20;99.90;;;;;;5112410;28;20111;-46
2022/12/06 06:02:45;;;;;;;22.77;15.82;;;7.30;99.90;;;;;;5109963;28;20027;-45
2022/12/06 06:05:12;;;;;;;25.40;17.55;;;7.30;99.90;;;;;;5114881;28;20025;-46
2022/12/06 06:07:38;;;;;;;19.75;14.95;;;7.30;99.90;;;;;;5113161;28;20016;-45
2022/12/06 06:10:05;;;;;;;26.13;17.38;;;7.20;99.90;;;;;;5114032;28;20106;-45
2022/12/06 06:12:31;;;;;;;25.60;16.08;;;7.20;99.90;;;;;;5114261;28;20450;-45
2022/12/06 06:14:57;;;;;;;24.65;15.15;;;7.20;99.90;;;;;;5115050;28;20031;-44
2022/12/06 06:17:23;;;;;;;23.83;13.88;;;7.10;99.90;;;;;;5112624;28;20379;-41
2022/12/06 06:19:49;;;;;;;27.70;16.85;;;7.00;99.90;;;;;;5114704;28;20028;-44
2022/12/06 06:22:15;;;;;;;26.40;16.17;;;6.90;99.90;;;;;;5112757;28;20035;-43
2022/12/06 06:24:41;;;;;;;31.10;17.90;;;6.90;99.90;;;;;;5058563;28;20090;-44
2022/12/06 06:27:07;;;;;;;25.08;16.17;;;6.90;99.90;;;;;;5115077;27;20027;-45
2022/12/06 06:29:33;;;;;;;27.02;16.20;;;6.90;99.90;;;;;;5114571;27;20112;-44
2022/12/06 06:31:59;;;;;;;27.48;16.75;;;6.90;99.90;;;;;;5113735;28;20023;-44
2022/12/06 06:34:25;;;;;;;31.67;19.40;;;6.90;99.90;;;;;;5109596;27;20390;-44
2022/12/06 06:36:51;;;;;;;32.88;20.73;;;7.10;99.90;;;;;;5117594;27;20463;-44
2022/12/06 06:39:17;;;;;;;38.30;24.40;;;7.10;99.90;;;;;;5115313;27;20035;-44
2022/12/06 06:41:44;;;;;;;32.10;22.15;;;7.20;99.90;;;;;;5134739;27;20113;-43
2022/12/06 06:44:09;;;;;;;31.67;20.75;;;7.30;99.90;;;;;;5135827;27;20028;-43
2022/12/06 06:46:35;;;;;;;31.33;19.80;;;7.40;99.90;;;;;;5133782;27;20046;-43
2022/12/06 06:49:01;;;;;;;29.67;20.05;;;7.50;99.90;;;;;;5126696;27;20157;-44
2022/12/06 06:51:27;;;;;;;25.92;18.40;;;7.70;99.90;;;;;;5114999;28;20141;-44
2022/12/06 06:53:52;;;;;;;27.20;17.15;;;7.70;99.90;;;;;;5096207;28;20032;-44
2022/12/06 06:56:19;;;;;;;24.80;14.73;;;7.70;99.90;;;;;;5114949;27;20035;-43
2022/12/06 06:58:45;;;;;;;23.65;13.43;;;7.60;99.90;;;;;;5133675;27;20037;-44
2022/12/06 07:01:17;;;;;;;30.80;19.27;;;7.50;99.90;;;;;;5131986;27;20379;-43
2022/12/06 07:03:43;;;;;;;26.17;18.30;;;7.60;99.90;;;;;;5114352;28;20028;-43
2022/12/06 07:06:09;;;;;;;26.23;15.27;;;7.50;99.90;;;;;;5114830;28;20106;-44
2022/12/06 07:08:36;;;;;;;23.00;14.02;;;7.50;99.90;;;;;;5118801;27;20077;-43
2022/12/06 07:11:02;;;;;;;22.10;14.85;;;7.60;99.90;;;;;;5134939;27;20359;-42
2022/12/06 07:13:29;;;;;;;23.42;15.77;;;7.80;99.90;;;;;;5118579;27;20084;-43
2022/12/06 07:15:55;;;;;;;21.75;15.07;;;7.90;99.90;;;;;;5114644;28;20524;-44
2022/12/06 07:18:21;;;;;;;27.77;15.98;;;8.80;99.90;;;;;;5115025;28;20050;-44
2022/12/06 07:20:47;;;;;;;24.80;16.52;;;8.40;99.90;;;;;;5101294;27;20031;-44
2022/12/06 07:23:14;;;;;;;24.90;15.23;;;8.30;99.90;;;;;;5120836;27;20027;-44
2022/12/06 07:25:40;;;;;;;20.95;13.48;;;10.40;99.90;;;;;;5122866;27;20119;-44
2022/12/06 07:28:06;;;;;;;19.00;13.27;;;10.60;99.90;;;;;;5119402;27;20051;-51
2022/12/06 07:30:32;;;;;;;20.00;11.30;;;;;;;;;;5092966;27;20046;-43
2022/12/06 07:32:59;;;;;;;27.95;17.00;;;;;;;;;;5106274;27;20031;-43
2022/12/06 07:35:25;;;;;;;22.30;13.25;;;;;;;;;;5127277;27;20027;-44
2022/12/06 07:37:51;;;;;;;20.10;12.98;;;;;;;;;;5134708;27;20410;-44
2022/12/06 07:40:17;;;;;;;20.50;13.15;;;;;;;;;;5132949;27;20031;-43
2022/12/06 07:45:28;;;;;;;22.70;15.70;;;;;;;;;;5134582;27;20666;-44
2022/12/06 07:47:54;;;;;;;16.05;12.93;;;13.70;99.90;;;;;;5134519;27;20458;-44
2022/12/06 07:50:21;;;;;;;22.00;12.93;;;;;;;;;;5134889;27;20019;-43
2022/12/06 07:52:48;;;;;;;14.25;10.23;;;;;;;;;;5115439;27;20035;-44
2022/12/06 07:55:15;;;;;;;15.45;11.20;;;;;;;;;;5134462;27;20035;-44
2022/12/06 07:57:41;;;;;;;18.65;12.00;;;;;;;;;;5132337;27;20031;-44
2022/12/06 08:00:09;;;;;;;18.48;12.52;;;;;;;;;;5134503;27;20454;-43
2022/12/06 08:02:35;;;;;;;17.00;12.63;;;;;;;;;;5098313;27;20027;-44
2022/12/06 08:05:01;;;;;;;29.15;15.70;;;;;;;;;;5134250;27;20527;-44
2022/12/06 08:07:27;;;;;;;21.83;15.48;;;;;;;;;;5132415;27;20084;-43
2022/12/06 08:09:54;;;;;;;28.27;17.75;;;;;;;;;;5134355;27;20088;-43
2022/12/06 08:12:20;;;;;;;23.92;15.35;;;12.50;99.90;;;;;;5134472;27;20065;-44
2022/12/06 08:14:46;;;;;;;27.80;16.92;;;12.80;99.90;;;;;;5133853;27;20080;-43
2022/12/06 08:17:11;;;;;;;25.00;15.07;;;11.90;99.90;;;;;;5097924;28;20039;-44
2022/12/06 08:19:37;;;;;;;31.98;23.00;;;11.10;99.90;;;;;;5134310;28;20031;-44
2022/12/06 08:22:04;;;;;;;35.38;20.88;;;10.70;99.90;;;;;;5134260;28;20091;-45
2022/12/06 08:24:30;;;;;;;30.02;20.88;;;10.30;99.90;;;;;;5149526;27;20031;-44
2022/12/06 08:26:57;;;;;;;32.72;21.75;;;10.20;99.90;;;;;;5149478;27;20084;-45
2022/12/06 08:29:22;;;;;;;44.85;28.90;;;10.10;99.90;;;;;;5107477;28;20055;-43
2022/12/06 08:31:48;;;;;;;22.30;14.65;;;9.60;99.90;;;;;;5113697;28;20032;-42
2022/12/06 08:34:15;;;;;;;35.13;26.33;;;9.40;99.90;;;;;;5094702;28;20080;-43
2022/12/06 08:36:41;;;;;;;29.40;19.70;;;9.50;99.90;;;;;;5113087;28;20085;-44
2022/12/06 08:39:09;;;;;;;30.33;19.27;;;9.30;99.90;;;;;;5113256;28;20402;-45
2022/12/06 08:44:39;;;;;;;61.13;38.63;;;9.60;99.90;;;;;;4989975;28;20045;-44
2022/12/06 08:47:04;;;;;;;73.15;46.65;;;9.50;99.90;;;;;;4990882;28;20125;-48
2022/12/06 08:49:30;;;;;;;65.50;40.83;;;9.90;99.90;;;;;;4972394;28;20035;-46
2022/12/06 08:51:57;;;;;;;88.28;51.15;;;10.30;99.90;;;;;;4990394;28;20038;-45
2022/12/06 08:54:24;;;;;;;47.60;30.75;;;11.30;99.90;;;;;;4990592;28;20085;-45
2022/12/06 08:56:50;;;;;;;24.52;16.35;;;11.50;99.90;;;;;;4990198;28;20502;-47
2022/12/06 08:59:16;;;;;;;23.98;16.92;;;11.40;99.90;;;;;;4991071;28;20046;-47
2022/12/06 09:01:42;;;;;;;18.98;13.20;;;11.10;99.90;;;;;;4990864;28;20053;-49
2022/12/06 09:04:10;;;;;;;21.27;13.25;;;10.90;99.90;;;;;;4991036;28;20118;-46
2022/12/06 09:06:40;;;;;;;17.08;11.02;;;10.20;99.90;;;;;;4991110;28;20022;-46
2022/12/06 09:09:08;;;;;;;22.75;14.57;;;9.80;99.90;;;;;;4990994;28;20493;-46
2022/12/06 09:11:34;;;;;;;27.88;16.17;;;9.70;99.90;;;;;;4990682;28;20046;-46
2022/12/06 09:13:59;;;;;;;25.38;17.73;;;9.50;99.90;;;;;;4977835;28;20453;-46
2022/12/06 09:16:25;;;;;;;29.02;17.35;;;9.30;99.90;;;;;;5107121;28;20489;-45
2022/12/06 09:18:51;;;;;;;34.15;24.48;;;9.10;99.90;;;;;;5112810;28;20038;-46
2022/12/06 09:21:20;;;;;;;21.80;15.35;;;9.30;99.90;;;;;;5094085;28;20046;-46
2022/12/06 09:23:46;;;;;;;16.27;9.93;;;9.40;99.90;;;;;;5094171;28;20080;-46
2022/12/06 09:26:12;;;;;;;18.42;13.20;;;9.30;99.90;;;;;;5115107;28;20102;-46
2022/12/06 09:28:39;;;;;;;20.70;14.25;;;9.50;99.90;;;;;;5115570;28;20123;-46
2022/12/06 09:31:06;;;;;;;20.58;10.93;;;9.60;99.90;;;;;;5116464;28;20024;-46
2022/12/06 09:33:32;;;;;;;20.90;13.73;;;9.60;99.90;;;;;;5116082;27;20057;-47
2022/12/06 09:36:03;;;;;;;18.30;13.38;;;10.50;99.90;;;;;;5122558;27;20019;-45
2022/12/06 09:38:30;;;;;;;18.63;12.50;;;10.60;99.90;;;;;;5031214;28;20050;-46
2022/12/06 09:41:21;;;;;;;20.10;12.35;;;10.20;99.90;;;;;;5046570;28;20032;-46
2022/12/06 09:44:06;;;;;;;26.83;14.80;;;9.90;99.90;;;;;;5119038;27;20133;-46
2022/12/06 09:46:53;;;;;;;20.00;14.95;;;9.80;99.90;;;;;;5111762;28;20080;-56
2022/12/06 09:49:30;;;;;;;22.13;14.43;;;9.80;99.90;;;;;;5113805;28;20104;-45
2022/12/06 09:52:23;;;;;;;22.67;12.80;;;9.80;99.90;;;;;;5115264;28;20027;-46
2022/12/06 09:55:02;;;;;;;20.17;15.65;;;9.70;99.90;;;;;;5115191;28;20069;-45
2022/12/06 09:57:41;;;;;;;20.80;14.07;;;9.70;99.90;;;;;;5078512;28;20028;-46
2022/12/06 10:00:29;;;;;;;23.67;15.60;;;9.90;99.90;;;;;;5115095;27;20036;-44
2022/12/06 10:03:09;;;;;;;22.63;15.18;;;9.80;99.90;;;;;;5114602;28;20063;-45
2022/12/06 10:05:57;;;;;;;22.90;15.68;;;9.80;99.90;;;;;;5114481;28;20019;-45
2022/12/06 10:08:31;;;;;;;21.02;16.17;;;9.80;99.90;;;;;;5114718;28;20029;-44
2022/12/06 10:11:22;;;;;;;23.63;16.60;;;9.70;99.90;;;;;;5114357;28;20023;-46
2022/12/06 10:14:05;;;;;;;25.95;16.60;;;9.90;99.90;;;;;;5114491;28;20387;-47
2022/12/06 10:16:58;;;;;;;22.67;15.55;;;9.90;99.90;;;;;;5078387;28;20028;-46
2022/12/06 10:19:57;;;;;;;23.52;16.73;;;9.90;99.90;;;;;;5114450;28;20032;-47
2022/12/06 10:22:42;;;;;;;26.75;17.60;;;9.90;99.90;;;;;;5114673;28;20031;-48
2022/12/06 10:25:31;;;;;;;23.17;16.20;;;10.10;99.90;;;;;;5078177;28;20036;-47
2022/12/06 10:28:13;;;;;;;24.42;17.02;;;10.20;99.90;;;;;;5113988;28;20050;-48
2022/12/06 10:30:51;;;;;;;24.88;16.83;;;10.20;99.90;;;;;;5044775;28;20028;-49
2022/12/06 10:33:36;;;;;;;24.63;16.55;;;10.10;99.90;;;;;;5113599;28;20031;-42
2022/12/06 10:36:08;;;;;;;24.15;15.77;;;10.20;99.90;;;;;;5113105;28;20036;-46
2022/12/06 10:38:40;;;;;;;22.00;14.63;;;10.20;99.90;;;;;;5078638;28;20058;-46
2022/12/06 10:41:06;;;;;;;23.20;15.77;;;10.00;99.90;;;;;;5113379;28;20023;-46
2022/12/06 10:43:57;;;;;;;27.70;16.67;;;10.10;99.90;;;;;;5114020;28;20430;-46
2022/12/06 10:49:20;;;;;;;25.83;17.48;;;10.20;99.90;;;;;;5114533;28;20391;-46
2022/12/06 10:52:27;;;;;;;26.00;16.52;;;10.40;99.90;;;;;;5113993;28;20034;-46
2022/12/06 10:54:56;;;;;;;27.92;15.73;;;10.50;99.90;;;;;;5113482;28;20042;-44
2022/12/06 10:57:42;;;;;;;24.00;16.15;;;10.50;99.90;;;;;;5077797;28;20654;-46
2022/12/06 11:00:18;;;;;;;27.50;18.00;;;10.60;99.90;;;;;;5099343;28;20054;-46
2022/12/06 11:03:02;;;;;;;24.23;16.40;;;10.60;99.90;;;;;;5077644;28;20074;-46
2022/12/06 11:05:52;;;;;;;21.13;15.93;;;10.70;99.90;;;;;;5077481;28;20046;-46
2022/12/06 11:08:34;;;;;;;24.55;17.42;;;10.80;99.90;;;;;;5077815;28;20040;-46
2022/12/06 11:11:00;;;;;;;35.47;22.20;;;10.80;99.90;;;;;;5114665;28;20106;-46
2022/12/06 11:13:39;;;;;;;31.98;21.73;;;10.70;99.90;;;;;;5114828;28;20424;-46
2022/12/06 11:16:10;;;;;;;33.78;20.17;;;10.80;99.90;;;;;;5114550;28;20074;-46
2022/12/06 11:18:37;;;;;;;21.38;16.50;;;10.90;99.90;;;;;;5114832;28;20040;-47
2022/12/06 11:21:19;;;;;;;28.70;20.35;;;10.90;99.90;;;;;;5091711;28;20087;-46
2022/12/06 11:23:52;;;;;;;26.25;18.10;;;10.90;99.90;;;;;;5091890;28;20039;-46
2022/12/06 11:26:33;;;;;;;28.52;18.30;;;10.80;99.90;;;;;;5091757;28;20032;-46
2022/12/06 11:29:08;;;;;;;25.67;18.27;;;10.90;99.90;;;;;;5091697;28;20614;-46
2022/12/06 11:31:50;;;;;;;25.77;19.08;;;11.00;99.90;;;;;;5091730;28;20039;-46
2022/12/06 11:34:24;;;;;;;24.45;19.25;;;11.00;99.90;;;;;;5073380;28;20070;-49
2022/12/06 11:36:52;;;;;;;37.45;19.13;;;11.00;99.90;;;;;;5043094;28;20024;-46
2022/12/06 11:39:18;;;;;;;26.05;17.27;;;10.90;99.90;;;;;;5090909;28;20073;-49
2022/12/06 11:41:48;;;;;;;24.17;16.95;;;10.90;99.90;;;;;;5105756;28;20050;-46
2022/12/06 11:44:19;;;;;;;31.05;20.75;;;11.00;99.90;;;;;;5053693;28;20035;-50
2022/12/06 11:46:46;;;;;;;24.27;16.52;;;;;;;;;;5089937;28;20075;-49
2022/12/06 11:49:20;;;;;;;25.48;16.83;;;11.20;99.90;;;;;;5089832;28;20028;-49
2022/12/06 11:51:47;;;;;;;25.58;18.02;;;11.30;99.90;;;;;;5098976;28;20039;-50
2022/12/06 11:54:28;;;;;;;23.77;17.67;;;11.30;99.90;;;;;;5110966;28;20031;-49
2022/12/06 11:56:57;;;;;;;25.40;17.20;;;11.40;99.90;;;;;;5112906;28;20403;-47
2022/12/06 11:59:28;;;;;;;29.05;19.02;;;11.40;99.90;;;;;;5109904;28;20050;-49
2022/12/06 12:02:00;;;;;;;25.60;19.17;;;11.30;99.90;;;;;;5109441;28;20490;-44
2022/12/06 12:04:30;;;;;;;28.83;19.10;;;11.20;99.90;;;;;;5112216;28;20063;-47
2022/12/06 12:07:17;;;;;;;32.65;20.27;;;11.00;99.90;;;;;;5076574;28;20041;-46
2022/12/06 12:09:48;;;;;;;28.05;19.80;;;10.90;99.90;;;;;;5112229;28;20156;-47
2022/12/06 12:12:17;;;;;;;29.88;20.63;;;10.70;99.90;;;;;;5112783;28;20031;-46
2022/12/06 12:14:44;;;;;;;28.80;21.45;;;10.70;99.90;;;;;;5093322;28;20038;-47
2022/12/06 12:17:19;;;;;;;30.63;21.17;;;10.60;99.90;;;;;;5076503;28;20484;-46
2022/12/06 12:19:59;;;;;;;30.48;21.95;;;10.60;99.90;;;;;;5112184;28;20039;-46
2022/12/06 12:22:34;;;;;;;31.80;22.23;;;10.40;99.90;;;;;;5112361;28;20019;-47
2022/12/06 12:25:19;;;;;;;31.92;23.13;;;10.40;99.90;;;;;;5127439;28;20038;-47
2022/12/06 12:27:52;;;;;;;36.10;23.23;;;10.40;99.90;;;;;;5068792;28;20187;-47
2022/12/06 12:30:35;;;;;;;35.08;22.63;;;10.30;99.90;;;;;;5069568;28;20735;-46
2022/12/06 12:33:08;;;;;;;31.25;23.05;;;10.20;99.90;;;;;;5094033;28;20497;-46
2022/12/06 12:35:39;;;;;;;32.15;22.95;;;10.10;99.90;;;;;;5101347;28;20035;-46
2022/12/06 12:38:25;;;;;;;38.25;23.48;;;10.10;99.90;;;;;;5055767;28;20051;-46
2022/12/06 12:40:57;;;;;;;36.72;23.95;;;10.10;99.90;;;;;;5107929;28;20524;-45
2022/12/06 12:43:29;;;;;;;33.03;24.00;;;10.10;99.90;;;;;;5059109;28;20036;-46
2022/12/06 12:46:10;;;;;;;33.53;24.10;;;10.10;99.90;;;;;;5109740;28;20028;-47
2022/12/06 12:48:41;;;;;;;35.20;25.63;;;10.20;99.90;;;;;;5059483;28;20430;-46
2022/12/06 12:51:32;;;;;;;35.67;24.20;;;10.40;99.90;;;;;;5089535;28;20024;-47
2022/12/06 12:54:01;;;;;;;37.22;23.63;;;10.50;99.90;;;;;;5067827;28;20106;-46
2022/12/06 12:56:31;;;;;;;38.88;24.40;;;10.50;99.90;;;;;;5069030;28;20144;-46
2022/12/06 12:58:57;;;;;;;34.05;23.98;;;10.60;99.90;;;;;;5075549;28;20461;-46
2022/12/06 13:01:23;;;;;;;33.78;25.85;;;10.60;99.90;;;;;;5091922;28;20035;-46
2022/12/06 13:03:53;;;;;;;37.90;26.10;;;10.60;99.90;;;;;;5076128;28;20032;-46
2022/12/06 13:06:37;;;;;;;40.83;27.55;;;10.70;99.90;;;;;;5093206;28;20027;-47
2022/12/06 13:09:05;;;;;;;51.08;32.83;;;10.70;99.90;;;;;;5075587;28;20243;-47
2022/12/06 13:11:40;;;;;;;58.47;34.92;;;10.70;99.90;;;;;;5092597;28;20141;-47
2022/12/06 13:14:17;;;;;;;86.43;42.08;;;10.70;99.90;;;;;;5092955;28;20036;-46
2022/12/06 13:16:43;;;;;;;79.65;42.47;;;;;;;;;;5092780;28;20070;-47
2022/12/06 13:19:15;;;;;;;60.42;37.35;;;11.00;99.90;;;;;;5092184;28;20044;-46
2022/12/06 13:21:44;;;;;;;;;;;10.60;99.90;;;;;;5091992;28;20629;-46
2022/12/06 13:24:10;;;;;;;45.97;27.83;;;10.00;99.90;;;;;;5055649;28;19904;-47
2022/12/06 13:26:43;;;;;;;36.25;25.40;;;9.60;99.90;;;;;;5072576;28;20090;-47
2022/12/06 13:29:34;;;;;;;33.83;23.92;;;9.50;99.90;;;;;;5062779;28;20106;-47
2022/12/06 13:32:17;;;;;;;36.00;26.08;;;9.30;99.90;;;;;;5057735;28;20727;-46
2022/12/06 13:35:11;;;;;;;40.17;30.33;;;9.60;99.90;;;;;;5020431;28;20033;-46
2022/12/06 13:37:45;;;;;;;163.70;130.45;;;10.00;99.90;;;;;;5035426;28;20041;-46
2022/12/06 13:40:32;;;;;;;63.08;49.65;;;10.10;99.90;;;;;;5052414;28;20052;-45
2022/12/06 13:43:00;;;;;;;42.95;31.38;;;10.30;99.90;;;;;;5052139;28;20658;-45
2022/12/06 13:45:44;;;;;;;37.72;27.38;;;10.40;99.90;;;;;;5054947;28;20037;-44
2022/12/06 13:48:24;;;;;;;38.30;27.30;;;10.30;99.90;;;;;;5052379;28;20033;-46
2022/12/06 13:50:57;;;;;;;42.78;27.65;;;10.40;99.90;;;;;;5056833;28;20032;-45
2022/12/06 13:53:25;;;;;;;37.00;27.02;;;10.10;99.90;;;;;;5046514;28;20036;-45